Swan Valley, Idaho
Current Conditions -  °F | °C
As of 5:56 AM on Wednesday 26 Nov 2014 (Local Time) from KDIJ Reporting Station
Overcast Overcast  
Wind Chill: 29°   Ceiling: 6000
Heat Index: 37°   Visibility: 10mi
Dew Point: 32°   Wind: 13mph
Humidity: 83%   Direction: 180°S
Pressure: 30.2"   Gusts: NA
Location:  43.46°N, 111.34°W
Report Text: KDIJ 261256Z AUTO 18011KT 10SM OVC060 03/00 A3020 RMK AO2 T00270000 SLP207
Loading
Personal Weather Stations






























Interactive Weather Map New forecast layout! Learn more

10-Day Weather Forecast

Advertisements
Track Severe Weather on mobile